Time;durP1;ratioP1;P1;durP2;ratioP2;P2;SDS_P1;SDS_P2;PMS_P1;PMS_P2;Temp;Humidity;BMP_temperature;BMP_pressure;BME280_temperature;BME280_humidity;BME280_pressure;Samples;Min_cycle;Max_cycle;Signal;HPM_P1;HPM_P2
2022/09/01 00:01:02;;;;;;;9.17;7.43;;;;;;;;;;5070897;28;20459;-70
2022/09/01 00:03:29;;;;;;;10.97;7.90;;;;;;;;;;5069537;28;20558;-70
2022/09/01 00:05:56;;;;;;;10.40;8.20;;;;;;;;;;5070730;28;20798;-71
2022/09/01 00:08:24;;;;;;;11.20;8.77;;;;;;;;;;5070751;28;20448;-71
2022/09/01 00:10:51;;;;;;;10.77;8.20;;;;;;;;;;5070554;28;20461;-71
2022/09/01 00:13:19;;;;;;;14.03;8.33;;;;;;;;;;5070705;28;20535;-71
2022/09/01 00:15:47;;;;;;;13.87;8.93;;;;;;;;;;5070929;28;20458;-70
2022/09/01 00:18:14;;;;;;;10.80;9.30;;;;;;;;;;5071174;28;20474;-70
2022/09/01 00:20:42;;;;;;;11.47;8.70;;;;;;;;;;5070744;28;20929;-70
2022/09/01 00:23:09;;;;;;;10.63;7.80;;;;;;;;;;5069734;28;21215;-70
2022/09/01 00:25:36;;;;;;;12.57;8.50;;;;;;;;;;5070597;28;20913;-71
2022/09/01 00:28:04;;;;;;;10.20;8.20;;;;;;;;;;5070369;28;20446;-70
2022/09/01 00:30:32;;;;;;;10.57;8.30;;;;;;;;;;5070569;28;20800;-71
2022/09/01 00:32:59;;;;;;;11.47;8.80;;;;;;;;;;5069587;28;20475;-70
2022/09/01 00:35:26;;;;;;;11.10;8.37;;;;;;;;;;5070492;28;21123;-70
2022/09/01 00:37:54;;;;;;;11.50;7.77;;;;;;;;;;5069443;28;20459;-71
2022/09/01 00:40:21;;;;;;;13.37;9.67;;;;;;;;;;5070037;28;20453;-70
2022/09/01 00:42:49;;;;;;;10.37;7.73;;;;;;;;;;5069880;28;20991;-71
2022/09/01 00:45:18;;;;;;;9.37;7.17;;;;;;;;;;5070432;28;20810;-71
2022/09/01 00:47:46;;;;;;;13.33;9.30;;;;;;;;;;5070297;28;20450;-71
2022/09/01 00:50:14;;;;;;;11.43;8.60;;;;;;;;;;5070056;28;20990;-70
2022/09/01 00:52:43;;;;;;;9.93;7.60;;;;;;;;;;5069651;28;20458;-71
2022/09/01 00:55:12;;;;;;;13.07;9.23;;;;;;;;;;5069742;28;20459;-71
2022/09/01 00:57:40;;;;;;;9.90;7.70;;;;;;;;;;5069920;28;20452;-70
2022/09/01 01:00:11;;;;;;;10.00;7.70;;;;;;;;;;5062569;28;21006;-71
2022/09/01 01:02:38;;;;;;;12.10;8.80;;;;;;;;;;5069352;28;20457;-70
2022/09/01 01:05:07;;;;;;;14.10;10.60;;;;;;;;;;5069553;28;20450;-71
2022/09/01 01:07:37;;;;;;;12.70;9.13;;;;;;;;;;5070176;28;20472;-71
2022/09/01 01:10:05;;;;;;;11.13;8.70;;;;;;;;;;5069778;28;20800;-70
2022/09/01 01:12:36;;;;;;;11.87;8.63;;;;;;;;;;5069509;28;20460;-70
2022/09/01 01:15:05;;;;;;;11.07;8.40;;;;;;;;;;5070139;28;20984;-71
2022/09/01 01:17:32;;;;;;;12.80;9.20;;;;;;;;;;5074155;28;20491;-70
2022/09/01 01:23:04;;;;;;;11.37;9.47;;;;;;;;;;5071297;28;22321;-70
2022/09/01 01:25:34;;;;;;;14.60;9.73;;;;;;;;;;5087228;28;20555;-71
2022/09/01 01:28:06;;;;;;;9.67;7.83;;;;;;;;;;5085596;28;20460;-70
2022/09/01 01:30:35;;;;;;;16.73;8.40;;;;;;;;;;5084714;28;20506;-71
2022/09/01 01:33:03;;;;;;;11.23;8.37;;;;;;;;;;5078452;28;20457;-70
2022/09/01 01:35:32;;;;;;;14.53;9.47;;;;;;;;;;5073719;28;20438;-70
2022/09/01 01:38:00;;;;;;;14.80;10.43;;;;;;;;;;5073253;28;20449;-70
2022/09/01 01:40:28;;;;;;;10.10;7.30;;;;;;;;;;5073492;28;20449;-71
2022/09/01 01:42:57;;;;;;;11.43;9.20;;;;;;;;;;5072830;28;20480;-70
2022/09/01 01:45:25;;;;;;;12.10;8.70;;;;;;;;;;5073524;28;20446;-71
2022/09/01 01:47:53;;;;;;;12.60;9.97;;;;;;;;;;5072742;28;20457;-70
2022/09/01 01:50:21;;;;;;;11.70;9.20;;;;;;;;;;5072787;28;20450;-70
2022/09/01 01:52:48;;;;;;;11.73;9.57;;;;;;;;;;5072972;28;20453;-70
2022/09/01 01:55:18;;;;;;;12.20;9.50;;;;;;;;;;5073335;28;20460;-70
2022/09/01 01:57:48;;;;;;;12.27;9.90;;;;;;;;;;5073396;28;20525;-71
2022/09/01 02:00:19;;;;;;;10.90;8.77;;;;;;;;;;5072648;28;20494;-71
2022/09/01 02:02:51;;;;;;;15.43;9.53;;;;;;;;;;5072431;28;20866;-70
2022/09/01 02:05:20;;;;;;;9.57;7.93;;;;;;;;;;5072790;28;20444;-70
2022/09/01 02:07:48;;;;;;;12.57;9.20;;;;;;;;;;5073533;28;20473;-71
2022/09/01 02:10:16;;;;;;;13.27;9.23;;;;;;;;;;5073133;28;20518;-71
2022/09/01 02:12:45;;;;;;;14.73;9.10;;;;;;;;;;5072839;28;20454;-70
2022/09/01 02:15:12;;;;;;;13.23;9.23;;;;;;;;;;5072319;28;20450;-70
2022/09/01 02:17:41;;;;;;;9.10;7.90;;;;;;;;;;5071384;28;20457;-70
2022/09/01 02:20:09;;;;;;;11.27;8.13;;;;;;;;;;5072377;28;20656;-70
2022/09/01 02:22:38;;;;;;;14.00;8.80;;;;;;;;;;5072295;28;20448;-71
2022/09/01 02:25:05;;;;;;;13.37;8.63;;;;;;;;;;5072128;28;20550;-70
2022/09/01 02:27:34;;;;;;;13.97;9.20;;;;;;;;;;5071531;28;20453;-70
2022/09/01 02:30:01;;;;;;;13.67;9.47;;;;;;;;;;5072231;28;20500;-70
2022/09/01 02:32:28;;;;;;;13.33;9.93;;;;;;;;;;5064501;28;20528;-70
2022/09/01 02:35:00;;;;;;;16.60;10.47;;;;;;;;;;5072214;28;20460;-70
2022/09/01 02:37:28;;;;;;;11.33;8.80;;;;;;;;;;5072458;28;20533;-70
2022/09/01 02:39:56;;;;;;;11.67;8.67;;;;;;;;;;5058684;28;20451;-70
2022/09/01 02:42:26;;;;;;;11.93;8.70;;;;;;;;;;5071959;28;20853;-70
2022/09/01 02:44:54;;;;;;;12.93;7.80;;;;;;;;;;5071482;28;20488;-70
2022/09/01 02:47:22;;;;;;;13.80;9.40;;;;;;;;;;5072324;28;20780;-70
2022/09/01 02:49:49;;;;;;;13.70;9.33;;;;;;;;;;5072350;28;20489;-70
2022/09/01 02:52:19;;;;;;;13.23;9.87;;;;;;;;;;5071727;28;20452;-70
2022/09/01 02:54:47;;;;;;;11.57;8.10;;;;;;;;;;5072378;28;20457;-70
2022/09/01 02:57:15;;;;;;;10.60;9.50;;;;;;;;;;5071545;28;21028;-70
2022/09/01 02:59:42;;;;;;;14.80;9.93;;;;;;;;;;5072130;28;20457;-70
2022/09/01 03:02:09;;;;;;;10.87;8.47;;;;;;;;;;5070675;28;20871;-70
2022/09/01 03:04:37;;;;;;;14.07;10.90;;;;;;;;;;5072358;28;20488;-70
2022/09/01 03:07:05;;;;;;;13.67;11.13;;;;;;;;;;5071036;28;20442;-70
2022/09/01 03:09:34;;;;;;;17.00;10.43;;;;;;;;;;5072168;28;20453;-71
2022/09/01 03:12:01;;;;;;;14.50;9.80;;;;;;;;;;5070758;28;20491;-70
2022/09/01 03:14:28;;;;;;;12.97;9.07;;;;;;;;;;5071931;28;20446;-70
2022/09/01 03:16:56;;;;;;;15.57;9.80;;;;;;;;;;5070794;28;20450;-71
2022/09/01 03:19:23;;;;;;;11.33;8.90;;;;;;;;;;5071911;28;20541;-70
2022/09/01 03:21:50;;;;;;;11.27;9.17;;;;;;;;;;5068606;28;20521;-70
2022/09/01 03:24:20;;;;;;;11.50;8.47;;;;;;;;;;5071497;28;20554;-70
2022/09/01 03:26:51;;;;;;;12.60;9.23;;;;;;;;;;5072000;28;20449;-71
2022/09/01 03:29:18;;;;;;;13.73;9.47;;;;;;;;;;5069513;28;20445;-71
2022/09/01 03:31:45;;;;;;;11.50;9.03;;;;;;;;;;5071082;28;20453;-71
2022/09/01 03:34:13;;;;;;;12.33;9.50;;;;;;;;;;5070665;28;20547;-71
2022/09/01 03:36:48;;;;;;;14.37;9.53;;;;;;;;;;5071405;28;20507;-70
2022/09/01 03:39:16;;;;;;;12.13;9.67;;;;;;;;;;5071159;28;20452;-71
2022/09/01 03:41:43;;;;;;;12.60;9.30;;;;;;;;;;5071352;28;20438;-71
2022/09/01 03:44:12;;;;;;;15.00;10.33;;;;;;;;;;5070399;28;20577;-71
2022/09/01 03:46:40;;;;;;;13.30;8.83;;;;;;;;;;5071261;28;20461;-71
2022/09/01 03:49:13;;;;;;;12.73;9.27;;;;;;;;;;5070664;28;20499;-70
2022/09/01 03:51:41;;;;;;;11.73;8.63;;;;;;;;;;5070707;28;20458;-70
2022/09/01 03:54:08;;;;;;;11.43;8.57;;;;;;;;;;5070237;28;20679;-70
2022/09/01 03:56:39;;;;;;;12.07;8.93;;;;;;;;;;5071537;28;20475;-71
2022/09/01 03:59:07;;;;;;;13.90;9.00;;;;;;;;;;5071133;28;20441;-70
2022/09/01 04:01:42;;;;;;;12.17;9.17;;;;;;;;;;5070782;28;20532;-69
2022/09/01 04:04:12;;;;;;;10.93;8.23;;;;;;;;;;5070371;28;20897;-70
2022/09/01 04:06:40;;;;;;;15.10;8.80;;;;;;;;;;5076888;28;20474;-70
2022/09/01 04:09:09;;;;;;;10.90;9.43;;;;;;;;;;5084604;28;20458;-69
2022/09/01 04:11:38;;;;;;;10.67;7.40;;;;;;;;;;5086675;28;20456;-69
2022/09/01 04:14:05;;;;;;;10.50;7.50;;;;;;;;;;5087177;28;20445;-70
2022/09/01 04:19:25;;;;;;;10.50;9.07;;;;;;;;;;5071149;28;20793;-70
2022/09/01 04:21:53;;;;;;;12.40;9.70;;;;;;;;;;5069541;28;20446;-70
2022/09/01 04:24:22;;;;;;;12.17;9.53;;;;;;;;;;5070085;28;20504;-70
2022/09/01 04:26:50;;;;;;;13.33;8.90;;;;;;;;;;5070362;28;20450;-70
2022/09/01 04:29:18;;;;;;;14.13;10.67;;;;;;;;;;5070487;28;20456;-70
2022/09/01 04:31:47;;;;;;;13.03;9.00;;;;;;;;;;5057514;28;20860;-70
2022/09/01 04:34:15;;;;;;;13.20;10.60;;;;;;;;;;5070841;28;20538;-70
2022/09/01 04:36:45;;;;;;;12.37;9.20;;;;;;;;;;5070248;28;20457;-69
2022/09/01 04:39:12;;;;;;;13.40;10.00;;;;;;;;;;5069345;28;20499;-70
2022/09/01 04:41:41;;;;;;;14.63;8.57;;;;;;;;;;5069697;28;20810;-70
2022/09/01 04:44:08;;;;;;;13.57;9.60;;;;;;;;;;5069335;28;20524;-69
2022/09/01 04:46:39;;;;;;;13.17;9.20;;;;;;;;;;5070292;28;20809;-69
2022/09/01 04:49:09;;;;;;;11.23;8.83;;;;;;;;;;5069928;28;20453;-70
2022/09/01 04:51:38;;;;;;;14.30;9.60;;;;;;;;;;5070217;28;20446;-69
2022/09/01 04:54:11;;;;;;;11.93;8.50;;;;;;;;;;5069523;28;20792;-76
2022/09/01 04:56:38;;;;;;;13.10;9.37;;;;;;;;;;5070163;28;20449;-72
2022/09/01 04:59:06;;;;;;;15.60;9.73;;;;;;;;;;5069176;28;20946;-73
2022/09/01 05:01:41;;;;;;;14.40;10.40;;;;;;;;;;5066340;28;20454;-70
2022/09/01 05:04:11;;;;;;;11.70;9.07;;;;;;;;;;5069555;28;21210;-70
2022/09/01 05:06:41;;;;;;;14.20;10.80;;;;;;;;;;5070092;28;20526;-70
2022/09/01 05:09:09;;;;;;;16.30;9.70;;;;;;;;;;5070124;28;20442;-70
2022/09/01 05:11:37;;;;;;;20.77;13.40;;;;;;;;;;5070211;28;20468;-72
2022/09/01 05:14:05;;;;;;;14.10;9.23;;;;;;;;;;5070169;28;20453;-73
2022/09/01 05:16:34;;;;;;;13.17;9.43;;;;;;;;;;5070149;28;20457;-73
2022/09/01 05:19:01;;;;;;;12.23;7.97;;;;;;;;;;5068992;28;20445;-71
2022/09/01 05:21:29;;;;;;;16.67;9.77;;;;;;;;;;5070001;28;20541;-72
2022/09/01 05:23:56;;;;;;;17.10;10.13;;;;;;;;;;5069423;28;20499;-72
2022/09/01 05:26:26;;;;;;;12.60;9.37;;;;;;;;;;5070357;28;20457;-72
2022/09/01 05:28:54;;;;;;;12.47;9.27;;;;;;;;;;5069395;28;20454;-72
2022/09/01 05:31:22;;;;;;;11.23;8.37;;;;;;;;;;5069924;28;20446;-72
2022/09/01 05:33:50;;;;;;;13.17;8.83;;;;;;;;;;5069863;28;20887;-72
2022/09/01 05:36:18;;;;;;;13.97;10.57;;;;;;;;;;5070076;28;20442;-72
2022/09/01 05:38:46;;;;;;;9.57;7.73;;;;;;;;;;5069722;28;20552;-72
2022/09/01 05:41:14;;;;;;;12.50;8.90;;;;;;;;;;5069615;28;20461;-72
2022/09/01 05:43:45;;;;;;;11.97;9.00;;;;;;;;;;5070342;28;20933;-72
2022/09/01 05:46:15;;;;;;;10.90;8.70;;;;;;;;;;5069333;28;20951;-72
2022/09/01 05:48:43;;;;;;;11.90;8.43;;;;;;;;;;5069741;28;20453;-72
2022/09/01 05:51:10;;;;;;;13.37;8.80;;;;;;;;;;5069498;28;20577;-72
2022/09/01 05:53:38;;;;;;;12.47;8.40;;;;;;;;;;5069656;28;20441;-72
2022/09/01 05:56:08;;;;;;;10.87;9.07;;;;;;;;;;5069792;28;20450;-72
2022/09/01 05:58:37;;;;;;;10.83;8.27;;;;;;;;;;5069135;28;20458;-72
2022/09/01 06:01:05;;;;;;;10.13;8.30;;;;;;;;;;5069496;28;20518;-72
2022/09/01 06:03:33;;;;;;;13.20;9.30;;;;;;;;;;5072637;28;20459;-72
2022/09/01 06:06:03;;;;;;;12.10;8.80;;;;;;;;;;5073037;28;20481;-72
2022/09/01 06:08:30;;;;;;;10.20;8.43;;;;;;;;;;5072870;28;20445;-72
2022/09/01 06:10:57;;;;;;;11.30;8.17;;;;;;;;;;5072797;28;20456;-72
2022/09/01 06:13:25;;;;;;;13.13;8.70;;;;;;;;;;5073071;28;20447;-72
2022/09/01 06:15:53;;;;;;;11.33;9.10;;;;;;;;;;5072815;28;20530;-72
2022/09/01 06:18:22;;;;;;;12.50;9.20;;;;;;;;;;5072810;28;20468;-72
2022/09/01 06:20:49;;;;;;;13.90;9.17;;;;;;;;;;5072726;28;20476;-72
2022/09/01 06:23:17;;;;;;;11.17;9.10;;;;;;;;;;5072829;28;20464;-72
2022/09/01 06:25:45;;;;;;;11.40;8.00;;;;;;;;;;5072736;28;20504;-72
2022/09/01 06:28:13;;;;;;;20.03;8.70;;;;;;;;;;5072178;28;20449;-73
2022/09/01 06:30:41;;;;;;;11.47;8.60;;;;;;;;;;5072809;28;20454;-72
2022/09/01 06:33:09;;;;;;;14.93;8.57;;;;;;;;;;5072219;28;20485;-72
2022/09/01 06:35:39;;;;;;;11.57;8.50;;;;;;;;;;5072734;28;20540;-72
2022/09/01 06:38:07;;;;;;;11.13;8.00;;;;;;;;;;5071922;28;20445;-72
2022/09/01 06:40:34;;;;;;;10.10;8.23;;;;;;;;;;5072605;28;20905;-72
2022/09/01 06:43:06;;;;;;;11.13;8.13;;;;;;;;;;5072437;28;20450;-72
2022/09/01 06:45:36;;;;;;;9.00;8.10;;;;;;;;;;5072183;28;20769;-72
2022/09/01 06:48:04;;;;;;;9.93;8.13;;;;;;;;;;5071819;28;20491;-72
2022/09/01 06:50:31;;;;;;;11.90;9.40;;;;;;;;;;5072371;28;20453;-73
2022/09/01 06:53:09;;;;;;;11.17;8.00;;;;;;;;;;5072073;28;20453;-72
2022/09/01 06:55:37;;;;;;;9.97;6.83;;;;;;;;;;5072399;28;20497;-72
2022/09/01 06:58:05;;;;;;;9.63;7.47;;;;;;;;;;5071614;28;20973;-73
2022/09/01 07:00:32;;;;;;;11.40;8.47;;;;;;;;;;5072054;28;20921;-73
2022/09/01 07:02:59;;;;;;;10.33;7.60;;;;;;;;;;5072074;28;20445;-72
2022/09/01 07:05:26;;;;;;;9.87;7.97;;;;;;;;;;5072156;28;20477;-73
2022/09/01 07:07:54;;;;;;;11.90;8.40;;;;;;;;;;5071772;28;21205;-72
2022/09/01 07:10:24;;;;;;;8.83;6.93;;;;;;;;;;5072403;28;20461;-72
2022/09/01 07:12:52;;;;;;;8.40;7.10;;;;;;;;;;5071448;28;20976;-72
2022/09/01 07:15:19;;;;;;;9.27;6.83;;;;;;;;;;5071949;28;20453;-73
2022/09/01 07:17:48;;;;;;;8.83;6.83;;;;;;;;;;5071658;28;20450;-72
2022/09/01 07:20:16;;;;;;;12.73;7.23;;;;;;;;;;5072197;28;20442;-72
2022/09/01 07:22:43;;;;;;;10.97;7.63;;;;;;;;;;5072127;28;20801;-73
2022/09/01 07:25:11;;;;;;;9.13;6.27;;;;;;;;;;5071076;28;20575;-73
2022/09/01 07:27:40;;;;;;;7.67;6.67;;;;;;;;;;5071508;28;20446;-73
2022/09/01 07:30:09;;;;;;;7.53;6.37;;;;;;;;;;5071161;28;20537;-73
2022/09/01 07:32:37;;;;;;;9.90;6.90;;;;;;;;;;5071434;28;20936;-72
2022/09/01 07:35:07;;;;;;;8.33;6.77;;;;;;;;;;5071404;28;20453;-73
2022/09/01 07:37:36;;;;;;;8.70;6.40;;;;;;;;;;5071570;28;20477;-73
2022/09/01 07:40:05;;;;;;;8.20;6.73;;;;;;;;;;5071312;28;20855;-72
2022/09/01 07:42:32;;;;;;;8.60;7.27;;;;;;;;;;5071501;28;20441;-72
2022/09/01 07:45:05;;;;;;;13.10;6.40;;;;;;;;;;5070877;28;20625;-73
2022/09/01 07:47:35;;;;;;;8.27;6.63;;;;;;;;;;5071694;28;20437;-73
2022/09/01 07:50:04;;;;;;;7.67;5.90;;;;;;;;;;5071109;28;20457;-73
2022/09/01 07:52:31;;;;;;;7.37;5.87;;;;;;;;;;5071365;28;20446;-73
2022/09/01 07:54:58;;;;;;;8.50;6.90;;;;;;;;;;5071208;28;20457;-73
2022/09/01 07:57:25;;;;;;;8.20;6.50;;;;;;;;;;5071157;28;20820;-73
2022/09/01 07:59:54;;;;;;;7.17;5.67;;;;;;;;;;5070764;28;20450;-72
2022/09/01 08:02:23;;;;;;;7.13;6.43;;;;;;;;;;5071108;28;20539;-73
2022/09/01 08:04:50;;;;;;;7.90;6.70;;;;;;;;;;5070702;28;20945;-73
2022/09/01 08:07:17;;;;;;;9.13;6.30;;;;;;;;;;5071151;28;20971;-73
2022/09/01 08:09:44;;;;;;;6.70;5.80;;;;;;;;;;5070918;28;20472;-73
2022/09/01 08:12:12;;;;;;;5.97;5.37;;;;;;;;;;5071261;28;20450;-73
2022/09/01 08:14:39;;;;;;;9.37;5.50;;;;;;;;;;5070859;28;20500;-73
2022/09/01 08:17:06;;;;;;;8.40;5.83;;;;;;;;;;5070531;28;20822;-73
2022/09/01 08:19:35;;;;;;;7.33;5.83;;;;;;;;;;5070464;28;20729;-73
2022/09/01 08:22:02;;;;;;;7.67;6.40;;;;;;;;;;5070498;28;20446;-73
2022/09/01 08:24:29;;;;;;;7.33;5.37;;;;;;;;;;5069985;28;20483;-74
2022/09/01 08:26:56;;;;;;;7.50;5.60;;;;;;;;;;5057322;28;20879;-73
2022/09/01 08:29:24;;;;;;;7.63;5.67;;;;;;;;;;5070630;28;21049;-73
2022/09/01 08:31:53;;;;;;;6.37;5.77;;;;;;;;;;5057026;28;21001;-73
2022/09/01 08:34:20;;;;;;;6.00;5.30;;;;;;;;;;5072535;28;20972;-73
2022/09/01 08:36:48;;;;;;;7.30;5.37;;;;;;;;;;5076950;28;20514;-73
2022/09/01 08:39:16;;;;;;;6.27;5.17;;;;;;;;;;5087881;28;20509;-73
2022/09/01 08:41:44;;;;;;;5.33;4.83;;;;;;;;;;5087996;28;20445;-73
2022/09/01 08:44:17;;;;;;;5.83;4.80;;;;;;;;;;5085529;28;20452;-73
2022/09/01 08:46:45;;;;;;;6.10;4.33;;;;;;;;;;5079312;28;20575;-73
2022/09/01 08:49:15;;;;;;;5.40;4.63;;;;;;;;;;5070737;28;20446;-74
2022/09/01 08:51:44;;;;;;;6.20;5.37;;;;;;;;;;5070547;28;20476;-74
2022/09/01 08:54:17;;;;;;;5.50;4.57;;;;;;;;;;5070191;28;20461;-74
2022/09/01 08:56:45;;;;;;;4.70;4.30;;;;;;;;;;5070728;28;20438;-74
2022/09/01 08:59:13;;;;;;;5.10;4.60;;;;;;;;;;5069631;28;20499;-74
2022/09/01 09:01:44;;;;;;;6.30;5.10;;;;;;;;;;5070264;28;20460;-74
2022/09/01 09:04:17;;;;;;;4.77;4.30;;;;;;;;;;5069784;28;20446;-73
2022/09/01 09:06:48;;;;;;;5.37;4.10;;;;;;;;;;5070557;28;20702;-73
2022/09/01 09:09:16;;;;;;;7.43;5.57;;;;;;;;;;5070001;28;21017;-73
2022/09/01 09:11:59;;;;;;;6.77;5.10;;;;;;;;;;5070555;28;20438;-73
2022/09/01 09:14:47;;;;;;;4.77;4.27;;;;;;;;;;5070437;28;20528;-74
2022/09/01 09:17:17;;;;;;;6.20;5.03;;;;;;;;;;5063911;28;20471;-72
2022/09/01 09:19:45;;;;;;;5.57;4.33;;;;;;;;;;5070100;28;20556;-74
2022/09/01 09:22:14;;;;;;;4.43;4.03;;;;;;;;;;5069910;28;20441;-73
2022/09/01 09:24:48;;;;;;;8.43;3.33;;;;;;;;;;5070117;28;20569;-73
2022/09/01 09:27:20;;;;;;;4.60;3.60;;;;;;;;;;5070207;28;20491;-73
2022/09/01 09:29:49;;;;;;;5.40;4.23;;;;;;;;;;5070114;28;20453;-74
2022/09/01 09:32:17;;;;;;;3.90;3.27;;;;;;;;;;5069926;28;20536;-73
2022/09/01 09:34:44;;;;;;;5.63;4.30;;;;;;;;;;5070133;28;20957;-73
2022/09/01 09:37:22;;;;;;;5.07;4.30;;;;;;;;;;5072588;28;20616;-73
2022/09/01 09:40:08;;;;;;;4.27;3.77;;;;;;;;;;5073728;28;20533;-72
2022/09/01 09:42:38;;;;;;;3.77;3.30;;;;;;;;;;5073755;28;20477;-73
2022/09/01 09:45:06;;;;;;;10.70;5.13;;;;;;;;;;5073893;28;20450;-73
2022/09/01 09:47:35;;;;;;;4.20;3.80;;;;;;;;;;5073152;28;20456;-73
2022/09/01 09:50:12;;;;;;;5.50;4.77;;;;;;;;;;5073381;28;20534;-73
2022/09/01 09:52:39;;;;;;;4.50;4.10;;;;;;;;;;5073741;28;20483;-73
2022/09/01 09:55:20;;;;;;;5.00;3.77;;;;;;;;;;5073568;28;20484;-73
2022/09/01 09:57:49;;;;;;;4.23;3.60;;;;;;;;;;5073464;28;20442;-74
2022/09/01 10:00:20;;;;;;;4.83;4.33;;;;;;;;;;5073281;28;20871;-74
2022/09/01 10:02:51;;;;;;;4.83;4.10;;;;;;;;;;5073727;28;20881;-74
2022/09/01 10:05:23;;;;;;;7.10;3.80;;;;;;;;;;5073523;28;20457;-73
2022/09/01 10:07:51;;;;;;;4.73;3.63;;;;;;;;;;5072627;28;20446;-73
2022/09/01 10:10:28;;;;;;;3.87;3.17;;;;;;;;;;5073494;28;20529;-73
2022/09/01 10:12:56;;;;;;;2.90;2.70;;;;;;;;;;5072959;28;20450;-73
2022/09/01 10:15:24;;;;;;;4.07;3.53;;;;;;;;;;5072791;28;20449;-74
2022/09/01 10:17:52;;;;;;;4.10;3.63;;;;;;;;;;5072667;28;20441;-73
2022/09/01 10:20:21;;;;;;;5.03;4.10;;;;;;;;;;5073077;28;20445;-73
2022/09/01 10:22:48;;;;;;;4.53;3.90;;;;;;;;;;5073513;28;20529;-74
2022/09/01 10:25:18;;;;;;;3.33;3.03;;;;;;;;;;5059373;28;20481;-73
2022/09/01 10:27:49;;;;;;;3.83;3.30;;;;;;;;;;5072587;28;20937;-74
2022/09/01 10:30:17;;;;;;;4.53;2.80;;;;;;;;;;5073291;28;20487;-73
2022/09/01 10:32:45;;;;;;;3.30;3.00;;;;;;;;;;5072556;28;20933;-73
2022/09/01 10:35:15;;;;;;;3.37;2.80;;;;;;;;;;5072661;28;20473;-74
2022/09/01 10:37:42;;;;;;;4.50;3.20;;;;;;;;;;5072212;28;20445;-74
2022/09/01 10:40:14;;;;;;;4.53;3.03;;;;;;;;;;5072421;28;20537;-74
2022/09/01 10:42:42;;;;;;;4.40;2.87;;;;;;;;;;5072863;28;20450;-74
2022/09/01 10:45:20;;;;;;;3.27;2.97;;;;;;;;;;5072550;28;21098;-74
2022/09/01 10:47:48;;;;;;;4.10;3.70;;;;;;;;;;5071235;28;20991;-74
2022/09/01 10:50:25;;;;;;;3.17;2.87;;;;;;;;;;5072681;28;20454;-74
2022/09/01 10:52:57;;;;;;;3.13;2.83;;;;;;;;;;5072283;28;20453;-73
2022/09/01 10:55:26;;;;;;;2.90;2.60;;;;;;;;;;5072582;28;20454;-74
2022/09/01 10:57:58;;;;;;;2.67;2.47;;;;;;;;;;5072046;28;20528;-75
2022/09/01 11:00:44;;;;;;;3.03;2.63;;;;;;;;;;5072562;28;20450;-74
2022/09/01 11:03:36;;;;;;;2.20;2.00;;;;;;;;;;5071985;28;20474;-74
2022/09/01 11:06:04;;;;;;;2.80;2.50;;;;;;;;;;5059354;28;20581;-74
2022/09/01 11:08:45;;;;;;;2.70;2.40;;;;;;;;;;5071987;28;20450;-74
2022/09/01 11:11:17;;;;;;;3.00;2.70;;;;;;;;;;5072004;28;20470;-74
2022/09/01 11:13:47;;;;;;;2.40;2.20;;;;;;;;;;5072741;28;20529;-74
2022/09/01 11:16:26;;;;;;;2.57;2.37;;;;;;;;;;5072492;28;20454;-75
2022/09/01 11:18:55;;;;;;;3.07;2.10;;;;;;;;;;5058949;28;20629;-74
2022/09/01 11:21:25;;;;;;;2.70;2.50;;;;;;;;;;5072316;28;20446;-74
2022/09/01 11:24:12;;;;;;;3.20;2.60;;;;;;;;;;5071900;28;20464;-74
2022/09/01 11:26:47;;;;;;;4.47;3.67;;;;;;;;;;5071920;28;20489;-74
2022/09/01 11:29:29;;;;;;;5.20;3.47;;;;;;;;;;5072055;28;20503;-74
2022/09/01 11:31:56;;;;;;;3.70;3.00;;;;;;;;;;5070382;28;20445;-74
2022/09/01 11:34:25;;;;;;;3.83;2.97;;;;;;;;;;5072087;28;20541;-74
2022/09/01 11:36:54;;;;;;;2.97;2.67;;;;;;;;;;5071690;28;20525;-74
2022/09/01 11:39:36;;;;;;;3.47;3.17;;;;;;;;;;5071528;28;20464;-75
2022/09/01 11:42:06;;;;;;;2.53;2.33;;;;;;;;;;5071616;28;20448;-74
2022/09/01 11:44:36;;;;;;;2.50;2.30;;;;;;;;;;5071534;28;20457;-75
2022/09/01 11:47:05;;;;;;;4.10;3.27;;;;;;;;;;5071337;28;20849;-74
2022/09/01 11:49:35;;;;;;;2.80;2.53;;;;;;;;;;5071383;28;20464;-74
2022/09/01 11:52:03;;;;;;;2.20;2.00;;;;;;;;;;5071297;28;20445;-75
2022/09/01 11:54:30;;;;;;;2.50;2.20;;;;;;;;;;5071721;28;20485;-75
2022/09/01 11:56:57;;;;;;;2.77;2.57;;;;;;;;;;5071011;28;20458;-74
2022/09/01 11:59:32;;;;;;;2.60;2.40;;;;;;;;;;5071192;28;20482;-74
2022/09/01 12:02:00;;;;;;;2.50;2.30;;;;;;;;;;5070760;28;20445;-74
2022/09/01 12:04:30;;;;;;;2.23;2.07;;;;;;;;;;5071389;28;20567;-75
2022/09/01 12:07:01;;;;;;;2.50;2.30;;;;;;;;;;5070773;28;20508;-74
2022/09/01 12:09:39;;;;;;;2.73;1.97;;;;;;;;;;5070903;28;20520;-74
2022/09/01 12:12:07;;;;;;;2.30;2.10;;;;;;;;;;5070662;28;20558;-74
2022/09/01 12:14:35;;;;;;;2.67;2.40;;;;;;;;;;5071300;28;20820;-74
2022/09/01 12:17:04;;;;;;;2.40;2.20;;;;;;;;;;5070271;28;20465;-75
2022/09/01 12:19:32;;;;;;;2.37;2.17;;;;;;;;;;5070543;28;20460;-74
2022/09/01 12:22:02;;;;;;;2.40;2.00;;;;;;;;;;5070276;28;20450;-74
2022/09/01 12:24:32;;;;;;;2.37;2.17;;;;;;;;;;5071000;28;20564;-74
2022/09/01 12:27:00;;;;;;;2.57;2.37;;;;;;;;;;5070708;28;21069;-74
2022/09/01 12:29:28;;;;;;;2.17;1.97;;;;;;;;;;5070469;28;20830;-74
2022/09/01 12:31:55;;;;;;;2.20;1.90;;;;;;;;;;5070062;28;20446;-74
2022/09/01 12:34:36;;;;;;;2.10;2.00;;;;;;;;;;5070637;28;20453;-74
2022/09/01 12:37:09;;;;;;;1.80;1.70;;;;;;;;;;5070801;28;20445;-74
2022/09/01 12:39:37;;;;;;;2.60;2.10;;;;;;;;;;5070475;28;20446;-74
2022/09/01 12:42:06;;;;;;;2.43;2.23;;;;;;;;;;5070424;28;21020;-74
2022/09/01 12:44:35;;;;;;;4.13;2.50;;;;;;;;;;5070575;28;20449;-74
2022/09/01 12:47:03;;;;;;;3.00;2.70;;;;;;;;;;5069901;28;20483;-74
2022/09/01 12:49:37;;;;;;;3.10;2.80;;;;;;;;;;5070774;28;20450;-73
2022/09/01 12:52:19;;;;;;;3.20;2.90;;;29.10;79.10;;;;;;5070525;28;20874;-74
2022/09/01 12:54:46;;;;;;;2.57;2.37;;;;;;;;;;5059878;28;20485;-74
2022/09/01 12:57:26;;;;;;;3.27;2.80;;;;;;;;;;5069668;28;20816;-74
2022/09/01 13:00:06;;;;;;;3.07;2.73;;;;;;;;;;5070496;28;20446;-74
2022/09/01 13:02:35;;;;;;;3.00;2.70;;;;;;;;;;5070401;28;20547;-74
2022/09/01 13:05:17;;;;;;;2.93;2.20;;;;;;;;;;5070410;28;20449;-74
2022/09/01 13:07:45;;;;;;;3.53;2.40;;;;;;;;;;5058529;28;20477;-74
2022/09/01 13:10:13;;;;;;;2.67;2.47;;;;;;;;;;5070217;28;20545;-75
2022/09/01 13:12:41;;;;;;;2.80;2.40;;;;;;;;;;5074476;28;20512;-74
2022/09/01 13:15:09;;;;;;;2.60;2.30;;;;;;;;;;5074197;28;20446;-74
2022/09/01 13:17:36;;;;;;;2.10;1.90;;;;;;;;;;5073762;28;20459;-74
2022/09/01 13:20:04;;;;;;;2.57;2.03;;;;;;;;;;5073891;28;21003;-74
2022/09/01 13:22:31;;;;;;;2.23;2.03;;;;;;;;;;5074295;28;20477;-74
2022/09/01 13:25:00;;;;;;;2.63;2.43;;;;;;;;;;5073690;28;20836;-74
2022/09/01 13:27:27;;;;;;;2.80;2.50;;;;;;;;;;5074118;28;20485;-76
2022/09/01 13:29:54;;;;;;;2.97;2.07;;;;;;;;;;5073741;28;20545;-74
2022/09/01 13:32:22;;;;;;;2.63;2.43;;;;;;;;;;5074096;28;20450;-74
2022/09/01 13:34:50;;;;;;;2.43;2.23;;;;;;;;;;5073639;28;20449;-74
2022/09/01 13:37:17;;;;;;;2.90;2.70;;;;;;;;;;5073928;28;20846;-75
2022/09/01 13:39:45;;;;;;;2.37;2.17;;;;;;;;;;5074183;28;20445;-75
2022/09/01 13:42:14;;;;;;;3.00;2.50;;;;;;;;;;5073704;28;20450;-74
2022/09/01 13:44:41;;;;;;;2.67;2.23;;;;;;;;;;5073722;28;20453;-74
2022/09/01 13:47:08;;;;;;;2.60;2.40;;;;;;;;;;5072938;28;20681;-74
2022/09/01 13:49:35;;;;;;;2.50;2.30;;;;;;;;;;5073666;28;20528;-74
2022/09/01 13:52:03;;;;;;;3.00;2.53;;;;;;;;;;5073702;28;20874;-73
2022/09/01 13:54:30;;;;;;;4.63;2.60;;;;;;;;;;5060612;28;20496;-74
2022/09/01 13:56:57;;;;;;;2.40;2.20;;;;;;;;;;5073478;28;20910;-74
2022/09/01 13:59:26;;;;;;;2.13;1.87;;;;;;;;;;5073712;28;20461;-74
2022/09/01 14:01:53;;;;;;;2.30;2.10;;;;;;;;;;5072888;28;20544;-74
2022/09/01 14:04:21;;;;;;;2.40;2.20;;;;;;;;;;5073898;28;20453;-74
2022/09/01 14:06:49;;;;;;;2.33;2.13;;;;;;;;;;5073576;28;21187;-74
2022/09/01 14:09:16;;;;;;;3.10;2.73;;;;;;;;;;5073289;28;20816;-74
2022/09/01 14:11:43;;;;;;;2.70;2.50;;;;;;;;;;5073582;28;20445;-75
2022/09/01 14:14:11;;;;;;;2.77;2.57;;;;;;;;;;5073011;28;20459;-74
2022/09/01 14:16:39;;;;;;;2.20;2.00;;;;;;;;;;5073211;28;20474;-74
2022/09/01 14:19:06;;;;;;;2.60;2.40;;;;;;;;;;5073113;28;20448;-74
2022/09/01 14:21:33;;;;;;;2.80;2.60;;;;;;;;;;5073144;28;20441;-73
2022/09/01 14:24:00;;;;;;;2.80;2.60;;;;;;;;;;5071863;28;20460;-74
2022/09/01 14:26:28;;;;;;;2.13;2.03;;;;;;;;;;5073196;28;20441;-74
2022/09/01 14:28:55;;;;;;;2.50;2.30;;;;;;;;;;5072234;28;20494;-73
2022/09/01 14:31:22;;;;;;;3.00;2.40;;;;;;;;;;5072835;28;20946;-73
2022/09/01 14:33:51;;;;;;;3.27;2.97;;;;;;;;;;5072675;28;20453;-74
2022/09/01 14:36:19;;;;;;;2.90;2.70;;;;;;;;;;5073352;28;20787;-74
2022/09/01 14:38:47;;;;;;;2.70;2.50;;;;;;;;;;5072492;28;20461;-74
2022/09/01 14:41:15;;;;;;;2.77;2.57;;;;;;;;;;5073010;28;20502;-74
2022/09/01 14:43:42;;;;;;;2.90;2.70;;;;;;;;;;5076665;28;20449;-74
2022/09/01 14:46:11;;;;;;;3.40;2.47;;;;;;;;;;5082472;28;20449;-73
2022/09/01 14:48:39;;;;;;;2.50;2.30;;;;;;;;;;5072220;28;20500;-73
2022/09/01 14:51:08;;;;;;;2.47;2.20;;;;;;;;;;5072771;28;20445;-73
2022/09/01 14:53:36;;;;;;;2.80;2.60;;;;;;;;;;5072671;28;20940;-74